Time;durP1;ratioP1;P1;durP2;ratioP2;P2;SDS_P1;SDS_P2;PMS_P1;PMS_P2;Temp;Humidity;BMP_temperature;BMP_pressure;BME280_temperature;BME280_humidity;BME280_pressure;Samples;Min_cycle;Max_cycle;Signal;HPM_P1;HPM_P2
2022/11/30 00:01:23;;;;;;;45.05;22.05;;;;;;;-2.15;82.36;98281.95;1693315;82;21036;-72
2022/11/30 00:03:55;;;;;;;48.08;22.48;;;;;;;-2.17;82.22;98279.72;1691260;83;21068;-73
2022/11/30 00:06:24;;;;;;;43.58;22.00;;;;;;;-2.18;82.27;98267.17;1694124;82;21039;-71
2022/11/30 00:08:57;;;;;;;45.90;22.62;;;;;;;-2.21;82.49;98274.02;1702222;83;21021;-72
2022/11/30 00:11:27;;;;;;;43.52;22.42;;;;;;;-2.19;82.48;98276.22;1709889;82;20999;-71
2022/11/30 00:13:53;;;;;;;40.45;20.20;;;;;;;-2.15;82.63;98272.43;1702177;82;21007;-71
2022/11/30 00:16:21;;;;;;;44.03;21.33;;;;;;;-2.13;82.67;98268.58;1710911;83;21005;-72
2022/11/30 00:18:48;;;;;;;45.98;22.17;;;;;;;-2.15;82.49;98268.53;1727474;82;21033;-72
2022/11/30 00:21:14;;;;;;;44.05;21.40;;;;;;;-2.20;82.29;98271.87;1732179;83;21036;-72
2022/11/30 00:23:44;;;;;;;48.75;23.20;;;;;;;-2.16;82.89;98273.72;1732318;82;21004;-72
2022/11/30 00:26:14;;;;;;;43.95;21.87;;;;;;;-2.18;82.47;98276.67;1732321;83;20988;-72
2022/11/30 00:28:44;;;;;;;46.90;22.85;;;;;;;-2.16;82.79;98275.02;1732198;83;21016;-72
2022/11/30 00:31:13;;;;;;;44.23;21.73;;;;;;;-2.14;82.62;98272.02;1732404;82;20985;-72
2022/11/30 00:33:40;;;;;;;45.40;22.35;;;;;;;-2.15;82.66;98266.38;1732282;82;21406;-72
2022/11/30 00:36:15;;;;;;;48.52;23.10;;;;;;;-2.17;82.71;98265.44;1732258;83;21047;-72
2022/11/30 00:38:42;;;;;;;;;;;;;;;-2.14;82.97;98270.31;1735082;82;21008;-72
2022/11/30 00:41:09;;;;;;;43.60;21.73;;;;;;;-2.10;83.13;98268.67;1732380;83;20099;-72
2022/11/30 00:43:36;;;;;;;44.85;21.48;;;;;;;-2.04;83.02;98257.57;1732500;83;20989;-72
2022/11/30 00:46:03;;;;;;;48.20;21.97;;;;;;;-2.02;82.91;98263.26;1732331;82;20941;-73
2022/11/30 00:48:29;;;;;;;48.33;23.35;;;;;;;-2.01;82.87;98255.03;1732416;83;20949;-72
2022/11/30 00:50:56;;;;;;;45.28;22.30;;;;;;;-2.03;82.56;98256.28;1732679;83;21016;-71
2022/11/30 00:53:23;;;;;;;42.20;21.40;;;;;;;-2.07;82.77;98259.67;1730629;82;21040;-72
2022/11/30 00:55:49;;;;;;;39.95;20.65;;;;;;;-2.05;82.71;98252.78;1728303;83;21040;-72
2022/11/30 00:58:16;;;;;;;41.40;20.82;;;;;;;-2.04;82.56;98255.83;1732338;83;20988;-71
2022/11/30 01:00:43;;;;;;;43.95;21.85;;;;;;;-2.05;82.61;98255.79;1732228;83;20981;-72
2022/11/30 01:03:13;;;;;;;45.40;22.10;;;;;;;-2.01;82.61;98251.13;1732543;83;21012;-72
2022/11/30 01:05:40;;;;;;;39.45;22.05;;;;;;;-2.01;82.64;98249.42;1732292;82;21029;-71
2022/11/30 01:08:10;;;;;;;45.30;21.85;;;;;;;-2.07;82.38;98249.28;1732282;82;21028;-71
2022/11/30 01:10:39;;;;;;;48.10;22.37;;;;;;;-2.10;82.54;98240.52;1732573;83;21027;-71
2022/11/30 01:13:07;;;;;;;44.80;22.73;;;;;;;-2.16;82.65;98251.64;1732409;82;21000;-72
2022/11/30 01:15:40;;;;;;;45.10;22.05;;;;;;;-2.23;82.68;98247.12;1732385;82;21008;-72
2022/11/30 01:18:06;;;;;;;46.73;23.20;;;;;;;-2.26;82.59;98246.22;1732368;82;21028;-73
2022/11/30 01:20:34;;;;;;;41.98;21.82;;;;;;;-2.27;82.78;98244.88;1732199;83;21051;-72
2022/11/30 01:23:00;;;;;;;45.20;23.25;;;;;;;-2.30;82.57;98252.56;1732277;82;20937;-72
2022/11/30 01:25:27;;;;;;;43.25;21.00;;;;;;;-2.27;82.95;98250.06;1732400;83;20992;-72
2022/11/30 01:27:53;;;;;;;43.02;20.23;;;;;;;-2.28;82.93;98247.02;1732514;83;20985;-72
2022/11/30 01:30:19;;;;;;;45.45;22.55;;;;;;;-2.28;82.70;98250.91;1732356;83;20970;-72
2022/11/30 01:32:46;;;;;;;43.00;21.23;;;;;;;-2.27;82.72;98252.25;1732480;83;21023;-74
2022/11/30 01:35:12;;;;;;;46.70;22.02;;;;;;;-2.29;82.73;98252.61;1732418;83;20949;-72
2022/11/30 01:37:39;;;;;;;39.95;20.43;;;;;;;-2.28;82.76;98255.66;1732404;83;20977;-72
2022/11/30 01:40:07;;;;;;;40.20;20.20;;;;;;;-2.29;82.52;98250.02;1732404;82;21008;-72
2022/11/30 01:42:36;;;;;;;43.50;21.30;;;;;;;-2.37;82.65;98247.63;1732229;83;21012;-72
2022/11/30 01:45:06;;;;;;;41.45;21.02;;;;;;;-2.34;82.85;98257.22;1732355;82;21025;-72
2022/11/30 01:47:38;;;;;;;41.88;20.05;;;;;;;-2.28;82.90;98262.15;1731799;83;21462;-73
2022/11/30 01:50:16;;;;;;;39.00;19.85;;;;;;;-2.33;82.50;98267.64;1732290;83;21021;-72
2022/11/30 01:52:46;;;;;;;45.30;21.00;;;;;;;-2.36;82.57;98264.09;1732481;83;20972;-73
2022/11/30 01:55:21;;;;;;;41.08;21.40;;;;;;;-2.42;82.78;98258.31;1732374;83;21396;-73
2022/11/30 01:58:02;;;;;;;38.92;20.45;;;;;;;-2.37;82.96;98266.23;1732219;82;20999;-72
2022/11/30 02:00:29;;;;;;;37.67;20.20;;;;;;;-2.40;82.74;98251.02;1732450;82;21068;-72
2022/11/30 02:03:12;;;;;;;42.43;21.40;;;;;;;-2.37;83.07;98258.02;1732412;83;21017;-72
2022/11/30 02:05:40;;;;;;;39.80;20.37;;;;;;;-2.37;82.72;98267.53;1732309;83;21028;-72
2022/11/30 02:08:09;;;;;;;50.28;22.98;;;;;;;-2.37;82.91;98270.13;1732223;82;20985;-72
2022/11/30 02:10:40;;;;;;;42.70;20.57;;;;;;;-2.36;82.70;98268.88;1732462;83;21371;-72
2022/11/30 02:13:24;;;;;;;44.13;20.97;;;;;;;-2.40;82.57;98273.53;1732333;83;20960;-72
2022/11/30 02:16:11;;;;;;;43.03;21.40;;;;;;;-2.39;83.00;98268.38;1732539;82;21021;-72
2022/11/30 02:19:22;;;;;;;42.80;21.23;;;;;;;-2.35;83.09;98268.44;1726686;82;21740;-73
2022/11/30 02:22:21;;;;;;;44.67;21.42;;;;;;;-2.39;82.66;98277.47;1719543;83;21045;-72
2022/11/30 02:25:11;;;;;;;41.92;20.62;;;;;;;-2.41;83.05;98266.59;1717457;83;20993;-71
2022/11/30 02:28:03;;;;;;;44.67;20.25;;;;;;;-2.35;83.12;98271.04;1719470;83;20970;-72
2022/11/30 02:30:34;;;;;;;43.98;20.27;;;;;;;-2.35;82.87;98269.34;1718097;83;21088;-71
2022/11/30 02:33:11;;;;;;;44.03;20.40;;;;;;;-2.39;82.83;98270.98;1719492;83;20977;-71
2022/11/30 02:35:42;;;;;;;46.15;20.60;;;;;;;-2.42;82.70;98264.80;1707578;83;21034;-72
2022/11/30 02:38:10;;;;;;;48.83;21.77;;;;;;;-2.41;83.01;98274.38;1724403;82;20999;-72
2022/11/30 02:40:37;;;;;;;52.83;23.92;;;;;;;-2.40;83.10;98270.49;1729770;82;20959;-72
2022/11/30 02:43:06;;;;;;;54.27;22.07;;;;;;;-2.43;82.72;98270.43;1746534;82;20981;-72
2022/11/30 02:45:59;;;;;;;47.73;22.15;;;;;;;-2.39;83.22;98273.98;1738681;82;21018;-72
2022/11/30 02:48:54;;;;;;;47.88;21.75;;;;;;;-2.37;83.09;98268.39;1754564;82;21378;-72
2022/11/30 02:51:22;;;;;;;;;;;;;;;-2.42;82.89;98274.78;1727734;82;21399;-71
2022/11/30 02:53:49;;;;;;;38.78;18.65;;;;;;;-2.39;83.05;98274.88;1734860;82;20093;-71
2022/11/30 02:56:18;;;;;;;41.13;20.40;;;;;;;-2.37;83.15;98275.33;1754368;82;21417;-71
2022/11/30 02:58:44;;;;;;;40.20;20.82;;;;;;;-2.35;83.19;98276.23;1741568;82;21028;-72
2022/11/30 03:01:10;;;;;;;41.30;20.97;;;;;;;-2.36;83.17;98276.67;1719385;82;21032;-72
2022/11/30 03:03:37;;;;;;;45.67;21.00;;;;;;;-2.34;83.07;98285.77;1719438;82;21427;-72
2022/11/30 03:06:04;;;;;;;40.23;20.85;;;;;;;-2.34;82.88;98285.36;1719579;82;21032;-72
2022/11/30 03:08:30;;;;;;;51.15;22.85;;;;;;;-2.40;82.74;98283.91;1719284;82;21100;-72
2022/11/30 03:11:03;;;;;;;46.83;22.67;;;;;;;-2.46;82.58;98276.83;1735771;82;20976;-72
2022/11/30 03:13:33;;;;;;;46.28;21.48;;;;;;;-2.49;82.66;98272.84;1754451;82;21020;-72
2022/11/30 03:16:09;;;;;;;41.65;20.80;;;;;;;-2.54;82.70;98277.03;1738404;82;21056;-72
2022/11/30 03:18:37;;;;;;;43.80;19.62;;;;;;;-2.56;82.89;98278.31;1719369;82;21040;-72
2022/11/30 03:21:06;;;;;;;45.52;21.30;;;;;;;-2.53;82.96;98286.16;1719300;83;21025;-72
2022/11/30 03:23:34;;;;;;;42.93;20.82;;;;;;;-2.54;83.21;98279.63;1719512;82;20957;-72
2022/11/30 03:26:02;;;;;;;46.15;19.27;;;;;;;-2.48;83.19;98292.79;1719499;83;21032;-72
2022/11/30 03:28:29;;;;;;;40.55;19.80;;;;;;;-2.47;83.25;98289.35;1719367;82;20984;-73
2022/11/30 03:30:56;;;;;;;39.45;18.73;;;;;;;-2.50;83.59;98289.25;1719522;82;20981;-72
2022/11/30 03:33:24;;;;;;;38.20;19.75;;;;;;;-2.52;83.40;98280.13;1718434;83;20979;-72
2022/11/30 03:36:06;;;;;;;41.08;19.73;;;;;;;-2.48;83.40;98280.22;1719168;83;20966;-72
2022/11/30 03:38:33;;;;;;;42.53;18.85;;;;;;;-2.48;83.36;98281.52;1719621;82;20922;-71
2022/11/30 03:41:08;;;;;;;41.18;18.82;;;;;;;-2.43;83.36;98290.30;1719462;83;21013;-71
2022/11/30 03:43:35;;;;;;;40.05;18.07;;;;;;;-2.45;83.34;98282.47;1719329;83;21072;-72
2022/11/30 03:46:03;;;;;;;36.63;17.45;;;;;;;-2.47;82.87;98283.27;1749845;82;20977;-72
2022/11/30 03:48:30;;;;;;;37.55;18.00;;;;;;;-2.53;82.74;98290.05;1737619;82;21104;-72
2022/11/30 03:50:57;;;;;;;36.05;16.97;;;;;;;-2.52;82.97;98289.64;1719395;83;21411;-72
2022/11/30 03:53:24;;;;;;;35.15;17.07;;;;;;;-2.53;83.02;98288.75;1719491;82;20996;-71
2022/11/30 03:55:55;;;;;;;37.28;18.77;;;;;;;-2.52;82.99;98288.34;1719267;83;20992;-71
2022/11/30 03:58:23;;;;;;;43.25;18.23;;;;;;;-2.53;82.98;98289.19;1719432;83;21408;-72
2022/11/30 04:01:05;;;;;;;33.58;16.23;;;;;;;-2.60;82.90;98282.95;1719327;83;21443;-71
2022/11/30 04:03:33;;;;;;;36.13;16.10;;;;;;;-2.61;82.89;98279.91;1719362;83;20982;-70
2022/11/30 04:06:01;;;;;;;35.70;16.62;;;;;;;-2.62;83.19;98281.16;1719465;82;21498;-73
2022/11/30 04:08:28;;;;;;;39.13;17.37;;;;;;;-2.60;83.37;98279.06;1719411;82;21435;-70
2022/11/30 04:10:57;;;;;;;33.83;16.25;;;;;;;-2.55;83.45;98284.36;1719527;83;21426;-71
2022/11/30 04:13:25;;;;;;;31.62;16.25;;;;;;;-2.55;83.28;98280.06;1719531;83;21028;-72
2022/11/30 04:15:53;;;;;;;31.93;15.60;;;;;;;-2.56;83.27;98277.02;1719567;83;20993;-72
2022/11/30 04:18:23;;;;;;;36.60;16.60;;;;;;;-2.56;83.24;98283.50;1719449;83;21415;-71
2022/11/30 04:20:53;;;;;;;34.67;15.65;;;;;;;-2.57;83.13;98278.27;1719569;83;21033;-72
2022/11/30 04:23:21;;;;;;;36.65;16.50;;;;;;;-2.57;83.20;98284.31;1718907;83;21479;-71
2022/11/30 04:25:48;;;;;;;39.50;17.87;;;;;;;-2.55;83.56;98293.03;1719480;82;20950;-71
2022/11/30 04:28:16;;;;;;;45.73;23.00;;;;;;;-2.49;83.87;98287.55;1719560;82;21144;-71
2022/11/30 04:30:44;;;;;;;55.08;28.70;;;;;;;-2.49;83.65;98294.90;1719454;83;20989;-71
2022/11/30 04:33:13;;;;;;;40.00;20.70;;;;;;;-2.46;83.95;98292.40;1719675;83;21386;-71
2022/11/30 04:35:47;;;;;;;43.08;20.60;;;;;;;-2.48;83.83;98283.70;1719500;83;21004;-71
2022/11/30 04:38:14;;;;;;;44.75;22.40;;;;;;;-2.47;83.82;98284.56;1719677;83;21267;-72
2022/11/30 04:40:42;;;;;;;37.00;19.45;;;;;;;-2.47;83.70;98289.75;1719491;83;20981;-72
2022/11/30 04:43:11;;;;;;;37.42;19.02;;;;;;;-2.46;83.89;98286.34;1719636;82;21013;-72
2022/11/30 04:45:38;;;;;;;39.08;18.25;;;;;;;-2.48;83.41;98293.20;1743829;82;21397;-72
2022/11/30 04:48:06;;;;;;;34.33;16.65;;;;;;;-2.52;83.53;98285.31;1719599;83;21000;-72
2022/11/30 04:50:34;;;;;;;34.67;17.05;;;;;;;-2.49;83.74;98287.55;1719590;83;21025;-72
2022/11/30 04:53:00;;;;;;;38.10;16.35;;;;;;;-2.50;83.58;98297.04;1719395;82;20977;-72
2022/11/30 04:55:27;;;;;;;42.55;17.98;;;;;;;-2.48;83.62;98298.39;1723995;82;20941;-73
2022/11/30 04:57:54;;;;;;;39.42;18.12;;;;;;;-2.47;83.59;98295.84;1719504;83;21470;-73
2022/11/30 05:00:22;;;;;;;36.58;17.57;;;;;;;-2.49;83.69;98294.90;1719258;82;21053;-72
2022/11/30 05:02:48;;;;;;;37.95;18.57;;;;;;;-2.51;83.83;98291.39;1719508;82;20981;-73
2022/11/30 05:05:15;;;;;;;35.08;17.55;;;;;;;-2.49;83.63;98288.84;1719631;83;21020;-72
2022/11/30 05:07:42;;;;;;;37.73;17.73;;;;;;;-2.49;83.82;98294.90;1719381;82;20989;-72
2022/11/30 05:10:10;;;;;;;37.10;18.45;;;;;;;-2.47;83.72;98289.75;1719471;83;20974;-72
2022/11/30 05:12:36;;;;;;;36.53;17.65;;;;;;;-2.47;83.63;98291.95;1719395;83;20962;-71
2022/11/30 05:15:04;;;;;;;40.10;18.00;;;;;;;-2.46;83.70;98291.54;1719250;82;21030;-72
2022/11/30 05:17:31;;;;;;;40.63;18.55;;;;;;;-2.46;83.36;98294.14;1719633;82;21348;-72
2022/11/30 05:19:57;;;;;;;34.98;17.73;;;;;;;-2.46;83.62;98292.84;1726078;83;21075;-72
2022/11/30 05:22:23;;;;;;;38.00;17.37;;;;;;;-2.48;83.72;98296.69;1732455;82;20957;-72
2022/11/30 05:24:50;;;;;;;38.80;20.12;;;;;;;-2.43;83.83;98295.50;1732319;83;21060;-73
2022/11/30 05:27:16;;;;;;;35.90;18.65;;;;;;;-2.42;83.52;98295.95;1732324;82;20953;-72
2022/11/30 05:29:43;;;;;;;37.85;18.65;;;;;;;-2.45;83.44;98300.64;1732317;83;21454;-72
2022/11/30 05:32:09;;;;;;;34.30;18.37;;;;;;;-2.46;83.31;98304.08;1732445;83;21023;-72
2022/11/30 05:34:35;;;;;;;35.25;19.10;;;;;;;-2.46;83.62;98296.73;1732585;82;21079;-72
2022/11/30 05:37:02;;;;;;;40.83;18.82;;;;;;;-2.48;83.52;98300.58;1732314;83;20957;-72
2022/11/30 05:39:28;;;;;;;38.02;17.75;;;;;;;-2.49;83.53;98302.69;1732510;83;20976;-72
2022/11/30 05:41:55;;;;;;;37.73;18.23;;;;;;;-2.44;83.62;98306.72;1731810;82;21477;-72
2022/11/30 05:44:21;;;;;;;39.75;17.80;;;;;;;-2.44;83.58;98301.53;1730996;81;20978;-72
2022/11/30 05:46:48;;;;;;;41.18;18.85;;;;;;;-2.36;83.86;98303.03;1731726;83;20934;-72
2022/11/30 05:49:14;;;;;;;36.33;18.15;;;;;;;-2.33;83.88;98303.98;1731164;83;21008;-72
2022/11/30 05:51:41;;;;;;;40.33;18.75;;;;;;;-2.34;83.57;98302.23;1732494;82;20933;-72
2022/11/30 05:54:08;;;;;;;38.63;19.70;;;;;;;-2.34;83.70;98308.73;1732396;82;20973;-72
2022/11/30 05:56:34;;;;;;;40.73;19.00;;;;;;;-2.30;83.55;98310.98;1712017;83;21043;-72
2022/11/30 05:59:00;;;;;;;42.48;19.50;;;;;;;-2.32;83.35;98315.27;1732424;83;21071;-72
2022/11/30 06:01:29;;;;;;;38.78;19.15;;;;;;;-2.39;83.17;98316.81;1732469;82;20981;-72
2022/11/30 06:03:56;;;;;;;35.55;18.85;;;;;;;-2.44;83.72;98315.81;1732300;82;21415;-73
2022/11/30 06:06:23;;;;;;;37.98;18.65;;;;;;;-2.41;84.01;98324.99;1732446;82;21426;-73
2022/11/30 06:08:50;;;;;;;43.65;19.37;;;;;;;-2.38;83.56;98328.95;1731350;82;20980;-71
2022/11/30 06:11:17;;;;;;;42.15;19.00;;;;;;;-2.36;83.80;98317.31;1731667;83;20933;-71
2022/11/30 06:13:44;;;;;;;43.28;20.57;;;;;;;-2.29;83.90;98321.81;1732469;83;21407;-71
2022/11/30 06:16:10;;;;;;;43.98;19.87;;;;;;;-2.24;84.11;98323.26;1732025;83;20976;-71
2022/11/30 06:18:37;;;;;;;34.65;18.40;;;;;;;-2.19;83.94;98322.55;1732222;83;21067;-71
2022/11/30 06:21:08;;;;;;;42.33;20.70;;;;;;;-2.14;83.96;98325.27;1720450;82;20998;-72
2022/11/30 06:23:36;;;;;;;37.75;19.60;;;;;;;-2.10;83.79;98320.61;1719388;83;21037;-72
2022/11/30 06:26:09;;;;;;;40.10;19.20;;;;;;;-2.06;83.63;98330.66;1719660;83;20949;-73
2022/11/30 06:28:36;;;;;;;38.20;18.75;;;;;;;-2.00;83.95;98333.00;1719464;83;21001;-73
2022/11/30 06:31:05;;;;;;;38.53;19.02;;;;;;;-1.92;84.00;98338.80;1719202;82;20973;-73
2022/11/30 06:33:33;;;;;;;38.45;19.45;;;;;;;-1.87;83.74;98343.72;1719109;82;21107;-72
2022/11/30 06:35:59;;;;;;;38.45;19.57;;;;;;;-1.83;83.49;98348.56;1719464;83;21000;-72
2022/11/30 06:38:26;;;;;;;40.08;19.35;;;;;;;-1.85;83.39;98344.63;1719360;83;20978;-72
2022/11/30 06:40:53;;;;;;;39.90;19.15;;;;;;;-1.85;83.44;98347.23;1719548;83;21020;-72
2022/11/30 06:43:20;;;;;;;41.70;20.40;;;;;;;-1.79;83.62;98347.81;1719580;82;21422;-72
2022/11/30 06:45:47;;;;;;;43.17;21.40;;;;;;;-1.76;83.68;98355.26;1744032;82;20944;-72
2022/11/30 06:48:14;;;;;;;42.95;21.23;;;;;;;-1.73;83.81;98351.86;1719624;82;20950;-72
2022/11/30 06:50:40;;;;;;;43.00;22.25;;;;;;;-1.63;83.81;98350.35;1719448;82;21045;-72
2022/11/30 06:53:07;;;;;;;44.27;22.20;;;;;;;-1.61;83.77;98350.84;1719413;83;21001;-72
2022/11/30 06:55:34;;;;;;;44.48;22.40;;;;;;;-1.58;83.62;98351.34;1719556;83;21000;-72
2022/11/30 06:58:09;;;;;;;43.90;21.52;;;;;;;-1.53;83.77;98348.44;1719417;83;20992;-72
2022/11/30 07:00:37;;;;;;;43.00;21.52;;;;;;;-1.47;83.69;98346.01;1718389;82;21443;-72
2022/11/30 07:03:05;;;;;;;48.30;22.75;;;;;;;-1.47;83.63;98344.71;1723299;82;20956;-72
2022/11/30 07:05:44;;;;;;;59.85;28.98;;;;;;;-1.41;83.57;98348.30;1687644;83;21861;-72
2022/11/30 07:08:13;;;;;;;59.42;28.67;;;;;;;-1.40;83.48;98350.94;1667909;85;21522;-72
2022/11/30 07:10:45;;;;;;;60.50;29.12;;;;;;;-1.34;83.92;98344.98;1722656;82;21421;-73
2022/11/30 07:13:17;;;;;;;59.18;29.87;;;;;;;-1.26;83.67;98343.45;1728718;82;21071;-72
2022/11/30 07:15:44;;;;;;;58.33;30.57;;;;;;;-1.20;83.87;98352.69;1722676;82;21001;-72
2022/11/30 07:18:12;;;;;;;59.75;32.58;;;;;;;-1.11;83.79;98350.75;1730597;82;21016;-72
2022/11/30 07:20:39;;;;;;;71.20;33.75;;;;;;;-1.03;83.95;98352.22;1707253;84;21056;-73
2022/11/30 07:26:05;;;;;;;78.83;37.60;;;;;;;-0.90;83.47;98339.47;1663222;85;21042;-71
2022/11/30 07:28:41;;;;;;;76.87;38.08;;;;;;;-0.85;83.46;98345.23;1719258;82;20949;-71
2022/11/30 07:31:27;;;;;;;84.37;39.00;;;;;;;-0.77;83.70;98344.52;1724340;82;21398;-72
2022/11/30 07:33:57;;;;;;;72.17;39.35;;;;;;;-0.69;83.86;98342.96;1723492;82;20970;-73
2022/11/30 07:36:26;;;;;;;66.25;35.75;;;;;;;-0.58;84.09;98341.89;1726869;82;21021;-72
2022/11/30 07:38:52;;;;;;;63.70;35.25;;;;;;;-0.50;84.05;98340.30;1725762;82;20968;-72
2022/11/30 07:41:19;;;;;;;60.00;34.08;;;;;;;-0.41;83.89;98332.68;1723756;82;21052;-71
2022/11/30 07:43:45;;;;;;;62.88;32.05;;;;;;;-0.32;83.86;98333.31;1724350;82;21411;-72
2022/11/30 07:46:14;;;;;;;59.90;32.65;;;;;;;-0.25;83.87;98329.52;1744417;82;20946;-72
2022/11/30 07:48:42;;;;;;;59.08;32.20;;;;;;;-0.17;83.72;98335.31;1719486;82;20980;-72
2022/11/30 07:51:18;;;;;;;58.00;30.77;;;;;;;-0.11;83.50;98332.36;1719582;82;20977;-71
2022/11/30 07:53:45;;;;;;;63.98;32.45;;;;;;;-0.07;83.53;98333.77;1719705;83;21084;-72
2022/11/30 07:56:15;;;;;;;60.60;32.95;;;;;;;0.04;83.69;98328.73;1719466;83;21012;-72
2022/11/30 07:58:43;;;;;;;59.67;31.02;;;;;;;0.15;83.72;98335.45;1719728;83;20946;-72
2022/11/30 08:01:14;;;;;;;58.73;30.92;;;;;;;0.22;83.44;98331.22;1719571;83;20998;-72
2022/11/30 08:03:41;;;;;;;64.37;33.18;;;;;;;0.30;83.19;98331.35;1719685;83;20977;-71
2022/11/30 08:06:12;;;;;;;64.50;30.23;;;;;;;0.37;83.26;98331.48;1719632;83;20976;-72
2022/11/30 08:08:43;;;;;;;57.90;30.05;;;;;;;0.45;83.37;98336.82;1719664;83;20973;-71
2022/11/30 08:11:14;;;;;;;64.95;32.75;;;;;;;0.51;83.00;98333.00;1719637;83;21048;-72
2022/11/30 08:13:41;;;;;;;56.23;31.17;;;;;;;0.56;83.12;98337.42;1719674;83;20930;-71
2022/11/30 08:16:12;;;;;;;52.67;30.27;;;;;;;0.61;82.96;98339.26;1719424;82;21020;-72
2022/11/30 08:18:40;;;;;;;61.83;30.45;;;;;;;0.68;82.85;98336.73;1719753;82;20981;-71
2022/11/30 08:21:09;;;;;;;49.38;27.93;;;;;;;0.75;83.09;98335.55;1727881;83;20993;-72
2022/11/30 08:23:40;;;;;;;58.17;30.48;;;;;;;0.77;82.88;98334.28;1732438;82;21035;-71
2022/11/30 08:26:14;;;;;;;57.43;30.37;;;;;;;0.85;82.79;98335.28;1732593;83;21486;-72
2022/11/30 08:28:42;;;;;;;56.05;30.40;;;;;;;0.90;82.77;98335.33;1732716;83;21032;-72
2022/11/30 08:31:14;;;;;;;60.75;29.40;;;;;;;0.96;82.50;98338.47;1732572;83;21432;-73
2022/11/30 08:33:41;;;;;;;54.15;28.42;;;;;;;1.02;82.55;98330.72;1731232;82;21047;-72
2022/11/30 08:36:15;;;;;;;52.62;27.98;;;;;;;1.09;82.72;98331.69;1730995;82;21035;-72
2022/11/30 08:38:43;;;;;;;52.40;27.48;;;;;;;1.16;82.47;98331.80;1732528;82;21052;-72
2022/11/30 08:41:12;;;;;;;58.90;27.77;;;;;;;1.18;82.41;98327.48;1732593;82;21015;-71
2022/11/30 08:43:39;;;;;;;50.60;26.45;;;;;;;1.26;81.97;98326.28;1732426;82;20973;-72
2022/11/30 08:46:11;;;;;;;48.20;26.20;;;;;;;1.33;82.25;98331.58;1754276;81;20952;-72
2022/11/30 08:48:38;;;;;;;56.08;28.52;;;;;;;1.44;82.26;98332.16;1732566;82;21411;-72
2022/11/30 08:51:10;;;;;;;54.08;28.45;;;;;;;1.50;81.94;98326.12;1731851;83;21053;-72
2022/11/30 08:53:40;;;;;;;54.38;28.20;;;;;;;1.55;81.94;98328.39;1732020;82;21450;-71
2022/11/30 08:56:11;;;;;;;56.35;28.42;;;;;;;1.67;82.02;98325.45;1731785;83;21356;-72
2022/11/30 08:58:39;;;;;;;50.73;28.05;;;;;;;1.73;81.65;98329.44;1732023;82;21015;-72
2022/11/30 09:01:15;;;;;;;51.83;27.20;;;;;;;1.76;81.29;98327.29;1732021;82;20989;-72
2022/11/30 09:03:45;;;;;;;58.00;29.60;;;;;;;1.79;80.77;98325.58;1724684;82;21048;-72
2022/11/30 09:06:16;;;;;;;54.70;30.02;;;;;;;1.82;80.93;98328.23;1713166;82;21035;-72
2022/11/30 09:08:48;;;;;;;53.25;29.80;;;;;;;1.86;80.84;98326.98;1704810;82;21324;-71
2022/11/30 09:11:19;;;;;;;52.90;31.17;;;;;;;1.89;80.75;98326.99;1729736;81;21409;-71
2022/11/30 09:13:47;;;;;;;59.88;31.48;;;;;;;1.94;80.62;98317.04;1731255;81;21469;-71
2022/11/30 09:16:17;;;;;;;51.15;30.25;;;;;;;1.98;80.67;98317.52;1736178;81;21391;-71
2022/11/30 09:18:46;;;;;;;60.15;31.93;;;;;;;2.03;80.23;98314.94;1731499;81;21030;-71
2022/11/30 09:21:16;;;;;;;52.70;32.23;;;;;;;2.07;79.89;98311.50;1731374;81;21028;-72
2022/11/30 09:23:44;;;;;;;58.35;32.20;;;;;;;2.10;79.99;98308.92;1727292;81;20957;-72
2022/11/30 09:26:16;;;;;;;60.15;32.78;;;;;;;2.17;80.02;98310.28;1727114;81;21402;-72
2022/11/30 09:28:45;;;;;;;70.37;41.48;;;;;;;2.25;80.02;98299.47;1728697;81;21438;-72
2022/11/30 09:31:20;;;;;;;64.12;34.63;;;;;;;2.32;79.94;98298.64;1726413;81;20972;-72
2022/11/30 09:33:48;;;;;;;70.35;37.13;;;;;;;2.40;79.92;98297.85;1724596;81;20981;-73
2022/11/30 09:36:18;;;;;;;67.82;35.55;;;;;;;2.47;79.67;98303.14;1726432;81;20967;-73
2022/11/30 09:38:45;;;;;;;64.00;34.90;;;;;;;2.55;79.34;98293.16;1696688;83;21037;-73
2022/11/30 09:41:35;;;;;;;66.65;36.15;;;;;;;2.62;79.40;98297.58;1670140;84;20993;-73
2022/11/30 09:44:16;;;;;;;65.35;36.77;;;;;;;2.68;79.38;98283.64;1664946;84;21025;-73
2022/11/30 09:47:06;;;;;;;69.87;37.53;;;;;;;2.78;79.07;98288.07;1727201;82;21400;-73
2022/11/30 09:49:47;;;;;;;66.65;36.42;;;;;;;2.87;78.69;98289.44;1726839;83;21044;-74
2022/11/30 09:52:19;;;;;;;75.92;39.60;;;;;;;2.94;78.72;98282.95;1727508;83;21020;-72
2022/11/30 09:54:47;;;;;;;71.02;39.27;;;;;;;3.01;78.80;98277.77;1726483;83;21450;-72
2022/11/30 09:57:49;;;;;;;70.78;35.95;;;;;;;3.15;78.29;98277.82;1727250;83;20993;-72
2022/11/30 10:00:23;;;;;;;69.03;37.35;;;;;;;3.24;78.51;98275.67;1727290;83;20968;-73
2022/11/30 10:02:53;;;;;;;69.00;35.17;;;;;;;3.33;77.93;98271.34;1727341;83;21004;-73
2022/11/30 10:05:46;;;;;;;71.37;33.95;;;;;;;3.35;77.60;98270.48;1727333;83;20992;-73
2022/11/30 10:08:30;;;;;;;66.15;33.40;;;;;;;3.36;77.66;98268.30;1727166;83;21386;-72
2022/11/30 10:11:22;;;;;;;68.05;36.55;;;;;;;3.41;78.08;98263.95;1727385;83;20992;-72
2022/11/30 10:14:30;;;;;;;73.92;38.40;;;;;;;3.49;77.36;98269.22;1707800;83;20966;-72
2022/11/30 10:17:10;;;;;;;66.25;36.77;;;;;;;3.54;77.50;98257.45;1727187;83;21025;-72
2022/11/30 10:20:00;;;;;;;72.12;36.20;;;;;;;3.67;77.50;98255.31;1727332;82;21437;-72
2022/11/30 10:22:55;;;;;;;63.40;34.13;;;;;;;3.79;77.29;98254.89;1719626;83;21507;-73
2022/11/30 10:25:26;;;;;;;65.65;35.08;;;;;;;3.85;76.64;98247.03;1719729;82;20985;-72
2022/11/30 10:28:01;;;;;;;68.07;34.70;;;;;;;3.99;76.98;98249.69;1719400;83;20998;-72
2022/11/30 10:30:36;;;;;;;64.92;33.35;;;;;;;4.07;76.65;98243.14;1719341;82;21433;-74
2022/11/30 10:33:13;;;;;;;74.55;32.60;;;;;;;4.18;76.86;98243.12;1719656;82;20961;-72
2022/11/30 10:35:47;;;;;;;69.53;32.55;;;;;;;4.25;76.07;98244.88;1718891;82;21355;-72
2022/11/30 10:38:27;;;;;;;64.15;31.95;;;;;;;4.31;75.31;98247.50;1719676;83;21446;-72
2022/11/30 10:41:02;;;;;;;64.92;32.08;;;;;;;4.33;75.13;98239.17;1719042;83;21001;-72
2022/11/30 10:43:37;;;;;;;63.17;31.62;;;;;;;4.25;74.19;98235.70;1719252;83;21467;-72
2022/11/30 10:46:04;;;;;;;;;;;;;;;4.16;74.66;98239.63;1722112;83;20989;-72
2022/11/30 10:48:45;;;;;;;66.22;32.88;;;;;;;4.09;74.69;98244.00;1719515;83;20099;-72
2022/11/30 10:51:12;;;;;;;49.25;30.82;;;;;;;4.01;74.77;98240.06;1719409;82;21462;-73
2022/11/30 10:53:38;;;;;;;54.70;30.62;;;;;;;4.03;75.25;98236.13;1719775;82;20997;-73
2022/11/30 10:56:13;;;;;;;52.38;30.85;;;;;;;4.09;75.55;98239.64;1719353;83;21048;-73
2022/11/30 10:59:14;;;;;;;52.78;30.70;;;;;;;4.13;75.51;98239.20;1719362;83;21053;-73
2022/11/30 11:01:41;;;;;;;58.78;30.62;;;;;;;4.19;75.30;98240.50;1699399;83;20989;-72
2022/11/30 11:04:21;;;;;;;56.80;31.10;;;;;;;4.22;75.31;98240.52;1719407;82;21049;-72
2022/11/30 11:06:58;;;;;;;51.02;29.65;;;;;;;4.22;75.07;98236.58;1719689;82;20945;-72
2022/11/30 11:09:38;;;;;;;50.67;29.30;;;;;;;4.26;74.90;98236.12;1718780;83;21029;-72
2022/11/30 11:12:21;;;;;;;57.83;27.07;;;;;;;4.28;75.16;98236.14;1719493;83;21446;-72
2022/11/30 11:14:48;;;;;;;45.73;26.42;;;;;;;4.34;75.25;98234.81;1719414;82;21423;-71
2022/11/30 11:17:22;;;;;;;48.15;27.90;;;;;;;4.38;74.81;98233.05;1719416;82;21092;-72
2022/11/30 11:19:51;;;;;;;52.27;26.10;;;;;;;4.43;74.74;98226.94;1714045;82;21024;-72
2022/11/30 11:22:22;;;;;;;47.75;26.48;;;;;;;4.49;74.94;98227.38;1727903;82;21000;-72
2022/11/30 11:25:10;;;;;;;50.17;27.62;;;;;;;4.55;74.93;98225.16;1707892;82;21605;-72
2022/11/30 11:27:37;;;;;;;45.03;25.62;;;;;;;4.67;75.16;98222.95;1729374;83;21005;-72
2022/11/30 11:30:27;;;;;;;51.20;27.10;;;;;;;4.74;74.79;98227.33;1731086;83;21063;-72
2022/11/30 11:33:14;;;;;;;45.17;26.15;;;;;;;4.83;74.84;98227.73;1737306;81;21405;-69
2022/11/30 11:35:52;;;;;;;49.03;27.10;;;;;;;4.94;74.71;98233.83;1739573;81;20995;-70
2022/11/30 11:38:24;;;;;;;50.90;26.12;;;;;;;5.05;74.55;98224.61;1724122;83;20988;-70
2022/11/30 11:40:59;;;;;;;48.48;26.48;;;;;;;5.25;74.38;98227.59;1735538;81;21038;-70
2022/11/30 11:43:32;;;;;;;50.05;26.90;;;;;;;5.47;74.41;98230.99;1733997;81;21016;-70